Time;durP1;ratioP1;P1;durP2;ratioP2;P2;SDS_P1;SDS_P2;PMS_P1;PMS_P2;Temp;Humidity;BMP_temperature;BMP_pressure;BME280_temperature;BME280_humidity;BME280_pressure;Samples;Min_cycle;Max_cycle;Signal;HPM_P1;HPM_P2
2022/12/13 05:01:12;;;;;;;0.50;0.50;;;-5.30;99.90;;;;;;5631282;23;20358;-67
2022/12/13 05:03:39;;;;;;;2.67;2.53;;;-5.30;99.90;;;;;;4986375;28;20223;-68
2022/12/13 05:06:07;;;;;;;27.58;3.25;;;-5.20;99.90;;;;;;4990929;28;20210;-66
2022/12/13 05:08:34;;;;;;;2.75;1.90;;;-5.10;99.90;;;;;;4990320;28;20670;-66
2022/12/13 05:11:00;;;;;;;1.00;1.00;;;-5.10;99.90;;;;;;4976681;28;20254;-66
2022/12/13 05:13:27;;;;;;;2.80;2.60;;;-5.00;99.90;;;;;;4964931;28;20203;-67
2022/12/13 05:15:57;;;;;;;5.40;3.20;;;-5.00;99.90;;;;;;4970567;28;20212;-69
2022/12/13 05:18:25;;;;;;;3.03;2.58;;;-4.90;99.90;;;;;;4971688;28;20211;-67
2022/12/13 05:20:52;;;;;;;2.97;1.98;;;-4.90;99.90;;;;;;4966385;28;20598;-68
2022/12/13 05:23:21;;;;;;;2.08;2.08;;;-4.90;99.90;;;;;;4963910;28;20207;-68
2022/12/13 05:25:47;;;;;;;1.23;1.23;;;-4.90;99.90;;;;;;4961685;28;20247;-68
2022/12/13 05:28:14;;;;;;;0.63;0.63;;;-5.00;99.90;;;;;;4970930;28;20295;-69
2022/12/13 05:30:41;;;;;;;7.15;2.03;;;-4.90;99.90;;;;;;4969485;28;20807;-68
2022/12/13 05:33:09;;;;;;;1.15;1.08;;;-4.90;99.90;;;;;;4968819;28;20219;-68
2022/12/13 05:35:37;;;;;;;1.33;1.33;;;-4.90;99.90;;;;;;4970361;28;20262;-68
2022/12/13 05:38:04;;;;;;;2.45;2.35;;;-4.90;99.90;;;;;;4970743;28;20205;-68
2022/12/13 05:40:32;;;;;;;3.30;2.72;;;-5.00;99.90;;;;;;4966221;28;20283;-69
2022/12/13 05:42:59;;;;;;;5.43;4.03;;;-5.10;99.90;;;;;;4966295;28;20222;-69
2022/12/13 05:45:26;;;;;;;3.33;3.15;;;-5.10;99.90;;;;;;4961085;28;20208;-68
2022/12/13 05:47:53;;;;;;;1.05;1.05;;;-5.00;99.90;;;;;;4964507;28;20223;-69
2022/12/13 05:50:19;;;;;;;1.40;1.40;;;-5.00;99.90;;;;;;4969635;28;20230;-67
2022/12/13 05:52:47;;;;;;;1.92;1.83;;;-5.10;99.90;;;;;;4970287;28;20204;-67
2022/12/13 05:55:14;;;;;;;1.52;1.52;;;-5.10;99.90;;;;;;4974217;28;20215;-68
2022/12/13 05:57:41;;;;;;;2.88;1.73;;;-5.10;99.90;;;;;;4971444;28;20215;-68
2022/12/13 06:00:09;;;;;;;2.42;1.60;;;-5.00;99.90;;;;;;4971010;28;20222;-69
2022/12/13 06:02:37;;;;;;;1.35;1.35;;;-5.00;99.90;;;;;;4970936;28;20254;-68
2022/12/13 06:05:05;;;;;;;1.33;1.30;;;-5.00;99.90;;;;;;4969723;28;20216;-68
2022/12/13 06:07:32;;;;;;;2.50;1.98;;;-5.00;99.90;;;;;;4961813;28;20302;-69
2022/12/13 06:09:59;;;;;;;3.58;2.50;;;-5.00;99.90;;;;;;4967514;28;20217;-69
2022/12/13 06:12:26;;;;;;;3.50;2.95;;;-4.90;99.90;;;;;;4964047;28;20295;-68
2022/12/13 06:14:53;;;;;;;5.22;3.97;;;-4.80;99.90;;;;;;4966665;28;20628;-68
2022/12/13 06:17:23;;;;;;;2.00;1.58;;;-4.80;99.90;;;;;;4973583;28;20268;-69
2022/12/13 06:19:50;;;;;;;2.78;2.63;;;-4.90;99.90;;;;;;4972610;28;20211;-68
2022/12/13 06:22:17;;;;;;;3.15;3.05;;;-4.90;99.90;;;;;;4966174;28;20314;-67
2022/12/13 06:24:44;;;;;;;8.15;7.65;;;-4.80;99.90;;;;;;4972476;28;20215;-69
2022/12/13 06:27:12;;;;;;;7.25;6.25;;;-4.60;99.90;;;;;;4973601;28;20211;-68
2022/12/13 06:29:39;;;;;;;4.28;4.10;;;-4.60;99.90;;;;;;4974003;28;20321;-68
2022/12/13 06:32:06;;;;;;;4.00;3.85;;;-4.60;99.90;;;;;;4969249;28;20271;-67
2022/12/13 06:34:34;;;;;;;10.63;3.78;;;-4.50;99.90;;;;;;4966727;28;20205;-67
2022/12/13 06:37:01;;;;;;;3.17;3.08;;;-4.50;99.90;;;;;;4968571;28;20203;-68
2022/12/13 06:39:29;;;;;;;3.58;3.17;;;-4.50;99.90;;;;;;4968424;28;20201;-66
2022/12/13 06:41:56;;;;;;;5.03;4.60;;;-4.50;99.90;;;;;;4965664;28;20319;-66
2022/12/13 06:44:24;;;;;;;6.22;3.63;;;-4.50;99.90;;;;;;4972608;28;20624;-67
2022/12/13 06:46:50;;;;;;;4.03;3.05;;;-4.50;99.90;;;;;;4972802;28;20231;-68
2022/12/13 06:49:17;;;;;;;3.22;1.75;;;-4.40;99.90;;;;;;4969750;28;20718;-67
2022/12/13 06:51:44;;;;;;;3.67;3.67;;;-4.30;99.90;;;;;;4970306;28;20693;-68
2022/12/13 06:54:10;;;;;;;5.97;4.15;;;-4.40;99.90;;;;;;4971604;28;20257;-67
2022/12/13 06:56:37;;;;;;;3.80;1.40;;;-4.40;99.90;;;;;;4973278;28;20271;-67
2022/12/13 06:59:04;;;;;;;4.68;3.33;;;-4.30;99.90;;;;;;4973460;28;20214;-68
2022/12/13 07:01:32;;;;;;;6.25;2.08;;;-4.30;99.90;;;;;;4968958;28;20713;-68
2022/12/13 07:03:58;;;;;;;8.68;4.47;;;-4.30;99.90;;;;;;4965418;28;20199;-68
2022/12/13 07:06:26;;;;;;;0.70;0.70;;;-4.20;99.90;;;;;;4973616;28;20220;-68
2022/12/13 07:08:54;;;;;;;3.65;3.38;;;-4.20;99.90;;;;;;4973847;28;20651;-69
2022/12/13 07:11:23;;;;;;;8.70;5.55;;;-4.20;99.90;;;;;;4972221;28;20228;-68
2022/12/13 07:13:50;;;;;;;9.10;2.67;;;-4.30;99.90;;;;;;4970125;28;20211;-69
2022/12/13 07:16:18;;;;;;;5.40;2.78;;;-4.20;99.90;;;;;;4967577;28;20718;-69
2022/12/13 07:18:46;;;;;;;4.63;4.32;;;-4.30;99.90;;;;;;4965821;28;20198;-69
2022/12/13 07:21:14;;;;;;;1.60;1.60;;;-4.30;99.90;;;;;;4971321;28;20288;-67
2022/12/13 07:23:41;;;;;;;2.95;2.75;;;-4.40;99.90;;;;;;4966130;28;20223;-69
2022/12/13 07:26:08;;;;;;;6.68;6.20;;;-4.40;99.90;;;;;;4971356;28;20296;-67
2022/12/13 07:28:36;;;;;;;3.72;3.53;;;-4.40;99.90;;;;;;4972708;28;20315;-69
2022/12/13 07:31:05;;;;;;;2.30;2.17;;;-4.40;99.90;;;;;;4971283;28;20616;-69
2022/12/13 07:33:32;;;;;;;0.82;0.82;;;-4.30;99.90;;;;;;4967201;28;20671;-68
2022/12/13 07:36:05;;;;;;;1.17;1.17;;;-4.20;99.90;;;;;;4972512;28;20214;-67
2022/12/13 07:38:32;;;;;;;0.73;0.73;;;-4.20;99.90;;;;;;4964324;28;20208;-66
2022/12/13 07:40:59;;;;;;;3.97;3.78;;;-4.20;99.90;;;;;;4962749;28;20231;-66
2022/12/13 07:43:26;;;;;;;0.43;0.43;;;-4.20;99.90;;;;;;4965934;28;20208;-68
2022/12/13 07:45:53;;;;;;;3.85;3.70;;;-4.20;99.90;;;;;;4965272;28;20199;-67
2022/12/13 07:48:19;;;;;;;0.40;0.40;;;-4.10;99.90;;;;;;4972900;28;20264;-68
2022/12/13 07:50:46;;;;;;;6.78;6.28;;;-4.00;99.90;;;;;;4970771;28;20231;-69
2022/12/13 07:53:14;;;;;;;3.70;3.53;;;-4.00;99.90;;;;;;4961583;28;20277;-65
2022/12/13 07:55:41;;;;;;;3.72;3.35;;;-4.00;99.90;;;;;;4964135;28;20220;-68
2022/12/13 07:58:09;;;;;;;5.38;5.07;;;-4.00;99.90;;;;;;4975529;28;20253;-69
2022/12/13 08:00:36;;;;;;;2.75;2.55;;;-4.00;99.90;;;;;;4975915;28;20236;-69
2022/12/13 08:03:03;;;;;;;4.00;3.80;;;-4.00;99.90;;;;;;4976781;28;20637;-67
2022/12/13 08:05:29;;;;;;;4.13;3.83;;;-4.10;99.90;;;;;;4966059;28;20208;-68
2022/12/13 08:07:56;;;;;;;1.88;1.77;;;-4.10;99.90;;;;;;4968337;28;20212;-69
2022/12/13 08:10:24;;;;;;;5.28;3.05;;;-4.10;99.90;;;;;;4967263;28;20287;-68
2022/12/13 08:12:51;;;;;;;4.45;4.15;;;-4.10;99.90;;;;;;4974334;28;20204;-69
2022/12/13 08:15:17;;;;;;;2.17;2.17;;;-4.00;99.90;;;;;;4970965;28;20270;-69
2022/12/13 08:17:44;;;;;;;18.17;5.95;;;-4.00;99.90;;;;;;4965630;28;20757;-67
2022/12/13 08:20:11;;;;;;;4.40;4.20;;;-4.00;99.90;;;;;;4976463;28;20202;-70
2022/12/13 08:22:38;;;;;;;2.72;2.60;;;-4.00;99.90;;;;;;4964360;28;20207;-67
2022/12/13 08:25:06;;;;;;;10.30;8.93;;;-4.00;99.90;;;;;;4976969;28;20324;-68
2022/12/13 08:27:34;;;;;;;4.50;4.28;;;-4.00;99.90;;;;;;4971231;28;20598;-68
2022/12/13 08:30:01;;;;;;;5.30;4.88;;;-4.00;99.90;;;;;;4968317;28;20229;-67
2022/12/13 08:32:27;;;;;;;3.28;1.65;;;-4.00;99.90;;;;;;4960385;28;20225;-66
2022/12/13 08:34:54;;;;;;;3.17;3.03;;;-4.00;99.90;;;;;;4963078;28;20211;-68
2022/12/13 08:37:21;;;;;;;0.93;0.93;;;-3.90;99.90;;;;;;4967607;28;20212;-68
2022/12/13 08:39:47;;;;;;;2.42;2.42;;;-3.90;99.90;;;;;;4972819;28;20201;-69
2022/12/13 08:42:16;;;;;;;1.80;1.80;;;-3.90;99.90;;;;;;4968264;28;20241;-68
2022/12/13 08:44:44;;;;;;;2.03;1.85;;;-3.90;99.90;;;;;;4973120;28;20585;-69
2022/12/13 08:47:11;;;;;;;13.32;5.80;;;-3.80;99.90;;;;;;4967259;28;20255;-68
2022/12/13 08:49:37;;;;;;;2.35;2.20;;;-3.80;99.90;;;;;;4967924;28;20643;-68
2022/12/13 08:52:04;;;;;;;2.38;2.33;;;-3.90;99.90;;;;;;4975582;28;20649;-68
2022/12/13 08:54:33;;;;;;;5.20;3.40;;;-3.90;99.90;;;;;;4971644;28;20220;-68
2022/12/13 08:57:00;;;;;;;3.17;3.00;;;-3.90;99.90;;;;;;4969443;28;20215;-69
2022/12/13 08:59:26;;;;;;;7.60;6.85;;;-3.80;99.90;;;;;;4964881;28;20203;-70
2022/12/13 09:01:54;;;;;;;2.85;2.75;;;-3.80;99.90;;;;;;4966655;28;20709;-68
2022/12/13 09:04:21;;;;;;;2.63;2.38;;;-3.80;99.90;;;;;;4972088;28;20219;-68
2022/12/13 09:06:48;;;;;;;4.28;3.95;;;-3.80;99.90;;;;;;4966132;28;20209;-68
2022/12/13 09:09:14;;;;;;;4.68;4.43;;;-3.70;99.90;;;;;;4970417;28;20234;-66
2022/12/13 09:11:41;;;;;;;10.63;3.80;;;-3.70;99.90;;;;;;4958611;28;20230;-68
2022/12/13 09:14:08;;;;;;;4.85;2.28;;;-3.60;99.90;;;;;;4970499;28;20577;-68
2022/12/13 09:16:35;;;;;;;3.63;3.00;;;-3.60;99.90;;;;;;4965106;28;20214;-68
2022/12/13 09:19:03;;;;;;;4.63;4.22;;;-3.60;99.90;;;;;;4962417;28;20218;-69
2022/12/13 09:21:30;;;;;;;2.67;2.47;;;-3.60;99.90;;;;;;4968071;28;20254;-69
2022/12/13 09:23:57;;;;;;;4.65;4.22;;;-3.50;99.90;;;;;;4964190;28;20383;-68
2022/12/13 09:26:24;;;;;;;4.65;3.88;;;-3.50;99.90;;;;;;4962773;28;20204;-69
2022/12/13 09:28:50;;;;;;;1.35;1.25;;;-3.50;99.90;;;;;;4966842;28;20226;-68
2022/12/13 09:31:19;;;;;;;5.20;4.97;;;-3.50;99.90;;;;;;4974814;28;20580;-69
2022/12/13 09:33:46;;;;;;;3.05;3.05;;;-3.50;99.90;;;;;;4968777;28;20210;-69
2022/12/13 09:36:17;;;;;;;4.47;4.03;;;-3.50;99.90;;;;;;4972065;28;20211;-68
2022/12/13 09:38:44;;;;;;;3.95;2.13;;;-3.40;99.90;;;;;;4967233;28;20215;-68
2022/12/13 09:41:20;;;;;;;5.35;2.65;;;-3.30;99.90;;;;;;4971154;28;20559;-69
2022/12/13 09:43:51;;;;;;;2.85;2.72;;;-3.30;99.90;;;;;;4973546;28;20205;-68
2022/12/13 09:46:26;;;;;;;1.50;0.82;;;-3.30;99.90;;;;;;4971572;28;20208;-69
2022/12/13 09:48:54;;;;;;;8.68;2.45;;;-3.20;99.90;;;;;;4969199;28;20236;-70
2022/12/13 09:51:24;;;;;;;4.15;3.90;;;-3.10;99.90;;;;;;4967585;28;20235;-70
2022/12/13 09:53:53;;;;;;;3.85;2.50;;;-3.00;99.90;;;;;;4967754;28;20219;-70
2022/12/13 09:56:22;;;;;;;4.57;2.75;;;-3.00;99.90;;;;;;4966832;28;20628;-68
2022/12/13 09:58:50;;;;;;;4.10;1.63;;;-2.90;99.90;;;;;;4972786;28;20199;-69
2022/12/13 10:01:17;;;;;;;1.75;1.75;;;-2.80;99.90;;;;;;4967947;28;20243;-68
2022/12/13 10:03:48;;;;;;;4.97;4.43;;;-2.80;99.90;;;;;;4970122;28;20266;-67
2022/12/13 10:06:16;;;;;;;12.45;6.40;;;-2.70;99.90;;;;;;4970049;28;20217;-69
2022/12/13 10:08:47;;;;;;;10.43;9.43;;;-2.60;99.90;;;;;;4972379;28;20220;-69
2022/12/13 10:11:15;;;;;;;3.20;3.10;;;-2.50;99.90;;;;;;4971006;28;20785;-68
2022/12/13 10:13:44;;;;;;;5.00;4.35;;;-2.50;99.90;;;;;;4974375;28;20352;-69
2022/12/13 10:16:15;;;;;;;29.30;4.53;;;-2.40;99.90;;;;;;4974957;28;20206;-68
2022/12/13 10:18:43;;;;;;;12.13;8.90;;;-2.30;99.90;;;;;;4974835;28;20225;-69
2022/12/13 10:21:15;;;;;;;4.50;3.92;;;-2.20;99.90;;;;;;4971193;28;20317;-69
2022/12/13 10:23:41;;;;;;;6.07;4.43;;;-2.20;99.90;;;;;;4969758;28;20300;-69
2022/12/13 10:26:13;;;;;;;3.33;2.85;;;-2.20;99.90;;;;;;4964699;28;20206;-69
2022/12/13 10:28:40;;;;;;;4.03;3.22;;;-2.10;99.90;;;;;;4974098;28;20206;-69
2022/12/13 10:31:07;;;;;;;2.47;2.28;;;-2.00;99.90;;;;;;4967048;28;20237;-70
2022/12/13 10:33:37;;;;;;;3.50;3.30;;;-2.00;99.90;;;;;;4973987;28;20203;-69
2022/12/13 10:36:08;;;;;;;3.45;3.15;;;-1.90;99.90;;;;;;4969736;28;20217;-68
2022/12/13 10:38:37;;;;;;;2.35;2.17;;;-1.80;99.90;;;;;;4966637;28;20274;-67
2022/12/13 10:41:36;;;;;;;1.80;1.70;;;-1.80;99.90;;;;;;4971821;28;20229;-68
2022/12/13 10:44:18;;;;;;;5.93;5.57;;;-1.70;99.90;;;;;;4973151;28;20213;-69
2022/12/13 10:47:00;;;;;;;4.05;3.67;;;-1.60;99.90;;;;;;4978638;28;20223;-68
2022/12/13 10:49:30;;;;;;;4.82;4.57;;;-1.60;99.90;;;;;;4978066;28;20309;-69
2022/12/13 10:51:59;;;;;;;4.60;3.35;;;-1.50;99.90;;;;;;4976704;28;20234;-69
2022/12/13 10:54:28;;;;;;;4.75;4.47;;;-1.50;99.90;;;;;;4988468;28;20245;-69
2022/12/13 10:56:59;;;;;;;8.15;2.83;;;-1.40;99.90;;;;;;4987554;28;20215;-68
2022/12/13 10:59:32;;;;;;;4.10;3.45;;;-1.40;99.90;;;;;;4987844;28;20235;-68
2022/12/13 11:02:00;;;;;;;6.50;6.00;;;-1.40;99.90;;;;;;4975620;28;20609;-69
2022/12/13 11:04:30;;;;;;;2.15;2.05;;;-1.30;99.90;;;;;;4975149;28;20282;-69
2022/12/13 11:06:59;;;;;;;14.07;5.25;;;-1.30;99.90;;;;;;4974836;28;20211;-68
2022/12/13 11:09:29;;;;;;;4.00;3.80;;;-1.30;99.90;;;;;;4972475;28;20682;-67
2022/12/13 11:12:00;;;;;;;11.77;3.95;;;-1.20;99.90;;;;;;4972425;28;20246;-68
2022/12/13 11:14:31;;;;;;;2.95;2.45;;;-1.10;99.90;;;;;;4974012;28;20210;-69
2022/12/13 11:17:05;;;;;;;5.65;5.47;;;-1.00;99.90;;;;;;4972404;28;20675;-70
2022/12/13 11:19:37;;;;;;;3.65;3.38;;;-1.00;99.90;;;;;;4966383;28;20204;-70
2022/12/13 11:22:04;;;;;;;8.55;7.90;;;-1.00;99.90;;;;;;4973911;28;20230;-69
2022/12/13 11:24:34;;;;;;;2.83;2.72;;;-0.90;99.90;;;;;;4968704;28;20210;-71
2022/12/13 11:27:14;;;;;;;3.50;3.40;;;-0.90;99.90;;;;;;4970820;28;20203;-69
2022/12/13 11:29:59;;;;;;;5.63;5.13;;;-0.80;99.90;;;;;;4964560;28;20230;-69
2022/12/13 11:32:38;;;;;;;3.67;3.58;;;-0.80;99.90;;;;;;4972953;28;20720;-68
2022/12/13 11:35:14;;;;;;;11.25;5.78;;;-0.80;99.90;;;;;;4966037;28;20572;-70
2022/12/13 11:37:48;;;;;;;5.60;3.55;;;-0.70;99.90;;;;;;4967026;28;20202;-69
2022/12/13 11:40:19;;;;;;;10.88;6.05;;;-0.70;99.90;;;;;;4962849;28;20204;-69
2022/12/13 11:42:54;;;;;;;14.05;3.78;;;-0.70;99.90;;;;;;4972620;28;20844;-69
2022/12/13 11:45:25;;;;;;;3.70;3.55;;;-0.60;99.90;;;;;;4964323;28;20293;-69
2022/12/13 11:48:01;;;;;;;6.57;6.05;;;-0.60;99.90;;;;;;4971227;28;20265;-69
2022/12/13 11:50:31;;;;;;;5.03;3.47;;;-0.50;99.90;;;;;;4971038;28;20250;-69
2022/12/13 11:53:17;;;;;;;4.97;3.65;;;-0.40;99.90;;;;;;4969406;28;20207;-69
2022/12/13 11:55:50;;;;;;;5.15;4.93;;;-0.20;99.90;;;;;;4968233;28;20211;-69
2022/12/13 11:58:25;;;;;;;6.53;6.05;;;-0.10;99.90;;;;;;4975779;28;20216;-69
2022/12/13 12:00:58;;;;;;;6.43;3.70;;;0.00;99.90;;;;;;4983313;28;20263;-67
2022/12/13 12:03:35;;;;;;;7.40;6.22;;;0.10;99.90;;;;;;4977023;28;20225;-70
2022/12/13 12:06:14;;;;;;;6.55;5.93;;;0.20;99.90;;;;;;4968118;28;20589;-69
2022/12/13 12:08:45;;;;;;;6.97;6.28;;;0.40;99.90;;;;;;4968463;28;20234;-70
2022/12/13 12:11:20;;;;;;;20.60;9.63;;;0.50;99.90;;;;;;4969254;28;20297;-69
2022/12/13 12:13:53;;;;;;;13.40;8.90;;;0.60;99.90;;;;;;4970865;28;20215;-69
2022/12/13 12:16:33;;;;;;;8.38;5.13;;;0.70;99.90;;;;;;4965195;28;20291;-69
2022/12/13 12:19:00;;;;;;;14.60;6.18;;;0.80;99.90;;;;;;4968885;28;20204;-68
2022/12/13 12:21:37;;;;;;;5.35;4.05;;;0.80;99.90;;;;;;4966111;28;20232;-68
2022/12/13 12:24:19;;;;;;;5.82;5.38;;;0.70;99.90;;;;;;4967554;28;20303;-68
2022/12/13 12:26:58;;;;;;;5.40;4.25;;;0.80;99.90;;;;;;4975137;28;20217;-71
2022/12/13 12:29:54;;;;;;;5.90;5.47;;;0.70;99.90;;;;;;4968363;28;20220;-70
2022/12/13 12:32:28;;;;;;;9.77;8.82;;;0.70;99.90;;;;;;4975966;28;20236;-69
2022/12/13 12:35:08;;;;;;;3.42;3.33;;;0.70;99.90;;;;;;4974237;28;20241;-70
2022/12/13 12:37:43;;;;;;;5.07;4.65;;;0.70;99.90;;;;;;4976988;28;20559;-70
2022/12/13 12:40:42;;;;;;;4.65;3.17;;;0.80;99.90;;;;;;4973292;28;20215;-69
2022/12/13 12:43:14;;;;;;;8.88;7.95;;;0.70;99.90;;;;;;4968377;28;20590;-69
2022/12/13 12:45:58;;;;;;;4.40;4.07;;;0.70;99.90;;;;;;4973091;28;20239;-68
2022/12/13 12:48:37;;;;;;;5.10;4.60;;;0.70;99.90;;;;;;4968806;28;20324;-69
2022/12/13 12:51:10;;;;;;;6.45;5.97;;;0.70;99.90;;;;;;4973147;28;20282;-69
2022/12/13 12:53:46;;;;;;;7.03;6.30;;;0.60;99.90;;;;;;4964805;28;20658;-69
2022/12/13 12:56:27;;;;;;;9.15;5.07;;;0.60;99.90;;;;;;4975915;28;20220;-68
2022/12/13 12:59:00;;;;;;;12.15;7.63;;;0.60;99.90;;;;;;4974854;28;20204;-69
2022/12/13 13:01:45;;;;;;;14.77;10.13;;;0.60;99.90;;;;;;4964690;28;20224;-68
2022/12/13 13:04:15;;;;;;;4.03;3.65;;;0.60;99.90;;;;;;4967143;28;20215;-69
2022/12/13 13:06:45;;;;;;;5.15;4.85;;;0.60;99.90;;;;;;4961978;28;20212;-68
2022/12/13 13:09:16;;;;;;;8.90;7.60;;;0.60;99.90;;;;;;4971529;28;20219;-68
2022/12/13 13:11:45;;;;;;;4.68;4.53;;;0.60;99.90;;;;;;4970912;28;20225;-69
2022/12/13 13:14:28;;;;;;;5.68;5.20;;;0.50;99.90;;;;;;4970448;28;20223;-70
2022/12/13 13:16:57;;;;;;;4.88;4.70;;;0.40;99.90;;;;;;4963303;28;20658;-70
2022/12/13 13:19:45;;;;;;;7.63;4.93;;;0.40;99.90;;;;;;4969568;28;20233;-67
2022/12/13 13:22:30;;;;;;;12.65;5.53;;;0.40;99.90;;;;;;4968541;28;20232;-67
2022/12/13 13:25:21;;;;;;;9.50;4.53;;;0.40;99.90;;;;;;4982272;28;20930;-70
2022/12/13 13:27:51;;;;;;;6.53;6.03;;;0.40;99.90;;;;;;4971914;28;20220;-70
2022/12/13 13:30:20;;;;;;;10.93;6.07;;;0.40;99.90;;;;;;4971827;28;20274;-68
2022/12/13 13:32:49;;;;;;;6.00;5.68;;;0.30;99.90;;;;;;4970214;28;20304;-68
2022/12/13 13:35:53;;;;;;;8.52;6.68;;;0.20;99.90;;;;;;4963800;28;20203;-69
2022/12/13 13:38:53;;;;;;;8.32;7.72;;;0.20;99.90;;;;;;4968880;28;20206;-68
2022/12/13 13:41:53;;;;;;;7.65;4.57;;;0.10;99.90;;;;;;4962472;28;20218;-71
2022/12/13 13:45:02;;;;;;;3.35;1.85;;;0.10;99.90;;;;;;4968881;28;20354;-70
2022/12/13 13:47:38;;;;;;;5.82;5.40;;;0.10;99.90;;;;;;4967951;28;20664;-69
2022/12/13 13:50:45;;;;;;;6.07;2.40;;;0.10;99.90;;;;;;4970002;28;20196;-69
2022/12/13 13:53:54;;;;;;;12.05;8.40;;;0.10;99.90;;;;;;4971516;28;20214;-69
2022/12/13 13:56:35;;;;;;;5.03;2.00;;;0.10;99.90;;;;;;4962861;28;20212;-71
2022/12/13 13:59:35;;;;;;;5.00;4.50;;;0.10;99.90;;;;;;4966500;28;20259;-70
2022/12/13 14:02:51;;;;;;;4.47;4.13;;;0.10;99.90;;;;;;4972283;28;20797;-70
2022/12/13 14:06:10;;;;;;;4.38;4.10;;;0.10;99.90;;;;;;4889438;29;20911;-71
2022/12/13 14:08:47;;;;;;;2.20;2.10;;;0.10;99.90;;;;;;4965417;28;20206;-69
2022/12/13 14:11:39;;;;;;;2.13;2.03;;;0.10;99.90;;;;;;4964066;28;20234;-69
2022/12/13 14:14:45;;;;;;;3.53;2.67;;;0.10;99.90;;;;;;4966299;28;20258;-68
2022/12/13 14:17:57;;;;;;;18.45;5.82;;;0.10;99.90;;;;;;4967577;28;20211;-72
2022/12/13 14:20:43;;;;;;;3.38;3.28;;;0.10;99.90;;;;;;4973677;28;20534;-70
2022/12/13 14:23:16;;;;;;;1.77;1.75;;;0.10;99.90;;;;;;4967399;28;20676;-71
2022/12/13 14:25:55;;;;;;;2.55;2.30;;;0.10;99.90;;;;;;4968254;28;20219;-69
2022/12/13 14:28:35;;;;;;;2.10;1.95;;;0.10;99.90;;;;;;4969443;28;20208;-71
2022/12/13 14:31:02;;;;;;;5.75;4.55;;;0.10;99.90;;;;;;4971618;28;20253;-69
2022/12/13 14:33:29;;;;;;;2.83;2.70;;;0.10;99.90;;;;;;4963354;28;20223;-70
2022/12/13 14:36:02;;;;;;;3.97;3.88;;;0.20;99.90;;;;;;4976008;28;20215;-69
2022/12/13 14:38:30;;;;;;;4.82;4.43;;;0.10;99.90;;;;;;4976750;28;20212;-69
2022/12/13 14:41:01;;;;;;;7.22;6.60;;;0.10;99.90;;;;;;4971337;28;20617;-69
2022/12/13 14:43:29;;;;;;;3.30;3.20;;;0.00;99.90;;;;;;4972611;28;20545;-69
2022/12/13 14:45:58;;;;;;;4.07;3.63;;;0.00;99.90;;;;;;4972841;28;20214;-69
2022/12/13 14:48:25;;;;;;;5.30;4.47;;;-0.10;99.90;;;;;;4974036;28;20199;-70
2022/12/13 14:50:53;;;;;;;2.20;2.10;;;-0.10;99.90;;;;;;4972869;28;20601;-68
2022/12/13 14:53:27;;;;;;;2.67;2.58;;;-0.20;99.90;;;;;;4971721;28;20216;-69
2022/12/13 14:56:09;;;;;;;2.78;2.72;;;-0.20;99.90;;;;;;4972517;28;20313;-68
2022/12/13 14:58:37;;;;;;;4.72;4.43;;;-0.30;99.90;;;;;;4968942;28;20257;-68
2022/12/13 15:01:04;;;;;;;3.67;2.75;;;-0.40;99.90;;;;;;4973055;28;20227;-70
2022/12/13 15:03:31;;;;;;;4.20;4.00;;;-0.40;99.90;;;;;;4974380;28;20203;-71
2022/12/13 15:06:00;;;;;;;1.60;1.60;;;-0.50;99.90;;;;;;4973561;28;20696;-69
2022/12/13 15:08:27;;;;;;;1.98;1.98;;;-0.60;99.90;;;;;;4979859;28;20218;-69
2022/12/13 15:10:57;;;;;;;0.93;0.93;;;-0.70;99.90;;;;;;4976325;28;20696;-69
2022/12/13 15:13:29;;;;;;;5.57;3.55;;;-0.70;99.90;;;;;;4961726;28;20227;-70
2022/12/13 15:15:59;;;;;;;1.25;1.25;;;-0.80;99.90;;;;;;4967402;28;20623;-70
2022/12/13 15:18:27;;;;;;;6.40;5.88;;;-0.90;99.90;;;;;;4967880;28;20287;-70
2022/12/13 15:20:56;;;;;;;6.78;2.72;;;-0.90;99.90;;;;;;4970784;28;20227;-67
2022/12/13 15:23:25;;;;;;;2.67;2.58;;;-0.90;99.90;;;;;;4969074;28;20203;-68
2022/12/13 15:25:59;;;;;;;8.32;2.38;;;-1.00;99.90;;;;;;4965009;28;20206;-69
2022/12/13 15:28:31;;;;;;;2.15;2.15;;;-1.00;99.90;;;;;;4976587;28;20596;-68
2022/12/13 15:30:59;;;;;;;5.22;5.03;;;-1.10;99.90;;;;;;4967366;28;20293;-69
2022/12/13 15:33:27;;;;;;;3.97;3.88;;;-1.10;99.90;;;;;;4986121;28;20202;-69
2022/12/13 15:36:04;;;;;;;13.85;3.80;;;-1.10;99.90;;;;;;4972767;28;20210;-67
2022/12/13 15:38:31;;;;;;;4.70;4.20;;;-1.10;99.90;;;;;;4979161;28;20604;-70
2022/12/13 15:40:59;;;;;;;4.30;3.75;;;-1.20;99.90;;;;;;4967972;28;20222;-69
2022/12/13 15:43:35;;;;;;;2.30;2.30;;;-1.20;99.90;;;;;;4978884;28;20226;-68
2022/12/13 15:46:03;;;;;;;10.27;4.38;;;-1.20;99.90;;;;;;4975125;28;20212;-68
2022/12/13 15:48:32;;;;;;;11.45;6.65;;;-1.30;99.90;;;;;;4966604;28;20660;-70
2022/12/13 15:51:08;;;;;;;0.82;0.82;;;-1.30;99.90;;;;;;4985287;28;20310;-70
2022/12/13 15:53:36;;;;;;;6.82;6.10;;;-1.30;99.90;;;;;;4966074;28;20703;-69
2022/12/13 15:56:02;;;;;;;1.45;1.38;;;-1.30;99.90;;;;;;4984916;28;20214;-69
2022/12/13 15:58:33;;;;;;;0.77;0.63;;;-1.40;99.90;;;;;;4978582;28;20542;-70
2022/12/13 16:01:04;;;;;;;9.25;6.85;;;-1.40;99.90;;;;;;4974707;28;20231;-71
2022/12/13 16:03:38;;;;;;;3.83;3.42;;;-1.40;99.90;;;;;;4972352;28;20276;-70
2022/12/13 16:06:06;;;;;;;2.35;2.35;;;-1.40;99.90;;;;;;4967801;28;20207;-70
2022/12/13 16:08:35;;;;;;;6.55;4.35;;;-1.50;99.90;;;;;;4980694;28;20292;-69
2022/12/13 16:11:02;;;;;;;3.38;3.13;;;-1.50;99.90;;;;;;4977095;28;20321;-69
2022/12/13 16:13:31;;;;;;;3.53;3.30;;;-1.50;99.90;;;;;;4975977;28;20304;-69
2022/12/13 16:16:01;;;;;;;6.93;5.40;;;-1.60;99.90;;;;;;4978768;28;20216;-69
2022/12/13 16:18:31;;;;;;;7.88;7.45;;;-1.60;99.90;;;;;;4974936;28;20239;-70
2022/12/13 16:20:58;;;;;;;1.42;1.42;;;-1.60;99.90;;;;;;4972426;28;20238;-70
2022/12/13 16:23:25;;;;;;;9.02;6.43;;;-1.60;99.90;;;;;;4983384;28;20205;-70
2022/12/13 16:25:52;;;;;;;5.63;5.32;;;-1.60;99.90;;;;;;4976669;28;20534;-68
2022/12/13 16:28:19;;;;;;;4.70;4.32;;;-1.60;99.90;;;;;;4972847;28;20254;-70
2022/12/13 16:31:09;;;;;;;9.15;5.32;;;-1.60;99.90;;;;;;4964929;28;20226;-69
2022/12/13 16:33:35;;;;;;;10.68;6.50;;;-1.60;99.90;;;;;;4974930;28;20252;-69
2022/12/13 16:36:02;;;;;;;4.03;2.58;;;-1.70;99.90;;;;;;4969189;28;20268;-70
2022/12/13 16:38:29;;;;;;;6.07;5.65;;;-1.70;99.90;;;;;;4970814;28;20281;-69
2022/12/13 16:40:59;;;;;;;2.75;2.60;;;-1.70;99.90;;;;;;4970057;28;20235;-69
2022/12/13 16:43:27;;;;;;;2.42;2.33;;;-1.70;99.90;;;;;;4969891;28;20215;-69
2022/12/13 16:45:55;;;;;;;6.03;5.45;;;-1.70;99.90;;;;;;4962213;28;20206;-69
2022/12/13 16:48:23;;;;;;;3.97;3.67;;;-1.70;99.90;;;;;;4970755;28;20240;-70
2022/12/13 16:50:51;;;;;;;2.97;2.88;;;-1.70;99.90;;;;;;4971680;28;20594;-69
2022/12/13 16:53:18;;;;;;;6.47;5.55;;;-1.80;99.90;;;;;;4970374;28;20228;-69
2022/12/13 16:55:46;;;;;;;2.70;2.70;;;-1.80;99.90;;;;;;4972230;28;20267;-67
2022/12/13 16:58:14;;;;;;;8.00;3.85;;;-1.80;99.90;;;;;;4963120;28;20220;-67
2022/12/13 17:00:42;;;;;;;3.08;2.75;;;-1.80;99.90;;;;;;4973216;28;20229;-67
2022/12/13 17:03:10;;;;;;;8.07;4.85;;;-1.90;99.90;;;;;;4974990;28;20226;-67
2022/12/13 17:05:41;;;;;;;4.07;3.80;;;-1.90;99.90;;;;;;4969829;28;20339;-68
2022/12/13 17:08:12;;;;;;;3.47;3.38;;;-2.00;99.90;;;;;;4974893;28;20233;-69
2022/12/13 17:10:39;;;;;;;4.22;4.05;;;-2.00;99.90;;;;;;4969726;28;20325;-67
2022/12/13 17:13:06;;;;;;;5.20;2.92;;;-2.00;99.90;;;;;;4973144;28;20279;-68
2022/12/13 17:15:32;;;;;;;2.45;2.35;;;-2.00;99.90;;;;;;4970560;28;20210;-67
2022/12/13 17:17:59;;;;;;;9.48;6.13;;;-2.10;99.90;;;;;;4968986;28;20669;-67
2022/12/13 17:20:26;;;;;;;6.25;4.88;;;-2.10;99.90;;;;;;4973641;28;20294;-68
2022/12/13 17:22:55;;;;;;;4.65;3.95;;;-2.10;99.90;;;;;;4971249;28;20201;-67
2022/12/13 17:25:22;;;;;;;3.15;3.15;;;-2.10;99.90;;;;;;4969658;28;20669;-68
2022/12/13 17:27:48;;;;;;;4.03;3.78;;;-2.10;99.90;;;;;;4979106;28;20220;-68
2022/12/13 17:30:17;;;;;;;4.45;4.25;;;-2.10;99.90;;;;;;4980353;28;20231;-68
2022/12/13 17:32:45;;;;;;;4.88;4.15;;;-2.10;99.90;;;;;;4968957;28;20228;-69
2022/12/13 17:35:12;;;;;;;5.43;4.78;;;-2.10;99.90;;;;;;4975983;28;20214;-68
2022/12/13 17:37:38;;;;;;;7.25;4.07;;;-2.10;99.90;;;;;;4971709;28;20210;-68
2022/12/13 17:40:07;;;;;;;5.75;5.30;;;-2.10;99.90;;;;;;4973708;28;20213;-68
2022/12/13 17:42:34;;;;;;;4.32;4.03;;;-2.10;99.90;;;;;;4975045;28;20276;-67
2022/12/13 17:45:01;;;;;;;6.60;5.20;;;-2.20;99.90;;;;;;4970134;28;20199;-67
2022/12/13 17:47:28;;;;;;;6.53;5.10;;;-2.20;99.90;;;;;;4974251;28;20205;-68
2022/12/13 17:49:54;;;;;;;5.47;4.97;;;-2.20;99.90;;;;;;4976990;28;20209;-68
2022/12/13 17:52:21;;;;;;;9.10;8.40;;;-2.20;99.90;;;;;;4979592;28;20252;-67
2022/12/13 17:54:48;;;;;;;8.55;3.60;;;-2.20;99.90;;;;;;4976581;28;20204;-67
2022/12/13 17:57:16;;;;;;;3.60;3.45;;;-2.20;99.90;;;;;;4976580;28;20553;-67
2022/12/13 17:59:43;;;;;;;2.20;2.10;;;-2.20;99.90;;;;;;4971654;28;20211;-70
2022/12/13 18:02:12;;;;;;;7.18;6.47;;;-2.20;99.90;;;;;;4968750;28;20567;-69
2022/12/13 18:04:40;;;;;;;1.73;1.70;;;-2.20;99.90;;;;;;4980657;28;20232;-68
2022/12/13 18:07:07;;;;;;;4.85;4.63;;;-2.20;99.90;;;;;;4979980;28;20260;-69
2022/12/13 18:09:34;;;;;;;2.90;2.80;;;-2.20;99.90;;;;;;4970630;28;20206;-69